Glenshire Elementary, Truckee, California Weather observations

Data are for observation ending at time listed.
 Day   Time    Ave.   Ave.  Ave.  Vector   Max.   Stn.    Total    Solar   Ave.   Snow 
  of    of     Air    Rel.  Wind   Wind    Wind   Baro.  Precip.   Rad.    Soil   Depth
Year   Day     Temp.  Hum.  Speed  Dir.    Gust   Pres.                    Temp.       
2014   (PST)    F      %     mph   deg.    mph     mb.     in.     W/m2     F      in. 
---------------------------------------------------------------------------------------  
 107    8:50   51.5    56    1.9   219      3.8   816.6    0.00     546    45.4   999.0
 107    9:00   53.9    51    1.7   227      3.8   816.5    0.00     551    45.4   999.0
 107    9:10   54.9    48    2.4   193      5.4   816.4    0.00     605    45.4   999.0
 107    9:20   57.5    44    1.7   106      5.4   816.4    0.00     611    45.4   999.0
 107    9:30   58.7    43    2.2    71      8.0   816.3    0.00     620    45.4   999.0
 107    9:40   60.5    40    3.2    76      8.8   816.3    0.00     674    45.4   999.0
 107    9:50   62.1    38    1.7    29      6.3   816.3    0.00     676    45.5   999.0
 107   10:00   62.3    37    3.4    86     10.5   816.2    0.00     735    45.5   999.0
 107   10:10   62.6    37    5.3    73     13.0   816.2    0.00     804    45.5   999.0
 107   10:20   63.2    37    4.9    76     12.1   816.3    0.00     799    45.5   999.0
 107   10:30   63.9    36    5.3    77     11.3   816.2    0.00     857    45.5   999.0
 107   10:40   65.2    32    4.1    77     16.3   816.2    0.00     868    45.5   999.0
 107   10:50   66.1    31    3.5    67     10.5   816.1    0.00     836    45.5   999.0
 107   11:00   66.3    29    4.0    61     12.1   816.1    0.00     749    45.5   999.0
 107   11:10   65.4    29    4.1    70     13.8   816.1    0.00     780    45.5   999.0
 107   11:20   65.1    28    4.3    70     12.1   816.1    0.00     804    45.4   999.0
 107   11:30   64.5    29    7.1    74     20.5   816.1    0.00     804    45.5   999.0
 107   11:40   63.5    29    7.2    76     18.9   816.0    0.00     734    45.4   999.0
 107   11:50   63.4    29    7.0    72     22.2   816.0    0.00     745    45.4   999.0
 107   12:00   63.8    27    6.4    67     17.2   816.0    0.00     814    45.4   999.0
 107   12:10   65.0    27    4.3    74     12.1   815.9    0.00     804    45.5   999.0
 107   12:20   64.6    28    6.8    75     17.2   815.9    0.00     804    45.5   999.0
 107   12:30   64.7    28    5.7    69     12.1   815.9    0.00     804    45.5   999.0
 107   12:40   65.6    27    5.0    70     13.8   815.8    0.00     804    45.5   999.0
 107   12:50   66.7    25    4.0    61     12.1   815.7    0.00     804    45.5   999.0
 107   13:00   66.3    26    4.8    69     13.8   815.7    0.00     741    45.5   999.0
 107   13:10   66.9    26    3.8    71     10.5   815.7    0.00     804    45.5   999.0
 107   13:20   68.2    24    3.7    61      9.6   815.6    0.00     804    45.5   999.0
 107   13:30   68.4    23    3.9    38     14.7   815.5    0.00     788    45.5   999.0
 107   13:40   67.1    24    5.6    64     16.3   815.5    0.00     740    45.5   999.0
 107   13:50   66.5    25    5.6    75     18.9   815.3    0.00     740    45.5   999.0
 107   14:00   66.7    25    5.3    68     14.7   815.3    0.00     720    45.5   999.0
 107   14:10   66.7    25    5.4    60     13.8   815.1    0.00     607    45.5   999.0
 107   14:20   67.1    25    4.9    64     11.3   815.0    0.00     687    45.4   999.0
 107   14:30   66.8    25    4.0    60     12.1   814.9    0.00     521    45.4   999.0
 107   14:40   65.4    26    3.8    56     12.1   814.9    0.00     354    45.4   999.0
 107   14:50   63.6    28    3.7    65      9.6   814.9    0.00     261    45.5   999.0
 107   15:00   63.4    28    3.9    60     11.3   814.8    0.00     314    45.4   999.0
 107   15:10   63.7    29    3.4    68      8.8   814.8    0.00     319    45.5   999.0
 107   15:20   63.0    31    3.2    67      8.0   814.8    0.00     258    45.5   999.0
 107   15:30   62.6    31    3.9    66     10.5   814.8    0.00     257    45.5   999.0
 107   15:40   61.8    32    3.7    72     11.3   814.8    0.00     207    45.4   999.0
 107   15:50   60.9    33    4.7    67     13.8   814.8    0.00     193    45.4   999.0
 107   16:00   60.4    35    4.7    72     13.8   814.8    0.00     193    45.4   999.0
 107   16:10   59.7    38    6.3    71     13.8   814.8    0.00     193    45.5   999.0
 107   16:20   59.8    38    5.0    69     13.8   814.9    0.00     192    45.5   999.0
 107   16:30   60.1    38    3.6    62     13.0   814.9    0.00     245    45.5   999.0
 107   16:40   60.9    36    6.1    67     19.7   814.9    0.00     217    45.6   999.0
 107   16:50   59.7    37    7.5    72     19.7   815.0    0.00     276    45.6   999.0
 107   17:00   60.9    35    6.1    71     16.3   815.1    0.00     321    45.5   999.0
 107   17:10   61.4    34    5.1    72     13.8   815.1    0.00     308    45.6   999.0
 107   17:20   61.3    36    4.9    66     13.8   815.0    0.00     267    45.6   999.0
 107   17:30   60.2    38    5.7    72     13.8   814.9    0.00     257    45.5   999.0
 107   17:40   60.0    38    5.0    66     16.3   814.8    0.00     205    45.5   999.0
 107   17:50   59.4    38    5.7    72     16.3   814.8    0.00     193    45.5   999.0
 107   18:00   57.7    41    5.7    75     15.5   814.8    0.00      77    45.5   999.0
 107   18:10   57.6    40    3.8    71     10.5   814.8    0.00      78    45.6   999.0
 107   18:20   55.9    42    3.2    71      9.6   814.8    0.00      21    45.5   999.0
 107   18:30   54.8    44    3.6    67     14.7   814.9    0.00       0    45.5   999.0
 107   18:40   53.9    46    3.4    68     13.0   815.0    0.00       0    45.6   999.0
 107   18:50   53.3    48    3.0    61      8.0   815.0    0.00       0    45.5   999.0
 107   19:00   52.8    49    2.1    68      5.4   815.1    0.00       0    45.5   999.0
 107   19:10   52.4    49    2.4    52      8.0   815.3    0.00       0    45.6   999.0
 107   19:20   51.9    50    2.2    67      8.0   815.4    0.00       0    45.5   999.0
 107   19:30   51.3    52    1.2    57      5.4   815.6    0.00       0    45.6   999.0
 107   19:40   50.7    54    1.1    72      3.8   815.7    0.00       0    45.6   999.0
 107   19:50   50.5    55    1.6    57      7.1   815.7    0.00       0    45.6   999.0
 107   20:00   50.2    56    1.7    78      5.4   815.7    0.00       0    45.6   999.0
 107   20:10   49.6    58    1.3    70      4.6   815.9    0.00       0    45.6   999.0
 107   20:20   49.4    59    0.5   339      2.9   816.0    0.00       0    45.6   999.0
 107   20:30   49.3    59    0.4   290      1.2   816.1    0.00       0    45.6   999.0
 107   20:40   49.0    60    0.5   277      2.9   816.0    0.00       0    45.6   999.0
 107   20:50   48.5    61    0.4   310      0.4   816.0    0.00       0    45.6   999.0
 107   21:00   47.9    61    0.4   310      0.4   816.0    0.00       0    45.6   999.0
 107   21:10   47.1    63    0.5    18      2.1   816.0    0.00       0    45.6   999.0
 107   21:20   46.4    62    0.4    26      0.4   815.9    0.00       0    45.6   999.0
 107   21:30   45.8    62    0.4   288      0.4   815.7    0.00       0    45.6   999.0
 107   21:40   45.1    64    0.8   265      2.1   815.6    0.00       0    45.6   999.0
 107   21:50   45.0    64    0.4   260      1.2   815.5    0.00       0    45.6   999.0
 107   22:00   44.6    66    0.4   240      0.4   815.6    0.00       0    45.6   999.0
 107   22:10   44.5    67    0.4   240      0.4   815.6    0.00       0    45.6   999.0
 107   22:20   45.0    66    0.4   240      0.4   815.6    0.00       0    45.6   999.0
 107   22:30   45.2    66    0.7   263      2.9   815.8    0.00       0    45.6   999.0
 107   22:40   45.9    65    0.5   260      2.1   815.9    0.00       0    45.6   999.0
 107   22:50   46.0    65    0.4   255      0.4   816.0    0.00       0    45.6   999.0
 107   23:00   45.5    66    0.5   265      2.1   816.0    0.00       0    45.6   999.0
 107   23:10   44.8    66    0.4   289      0.4   816.1    0.00       0    45.6   999.0
 107   23:20   44.5    67    0.4   238      1.2   816.2    0.00       0    45.6   999.0
 107   23:30   44.2    68    0.4   241      2.1   816.2    0.00       0    45.6   999.0
 107   23:40   43.6    68    0.4   279      1.2   816.2    0.00       0    45.6   999.0
 107   23:50   43.3    68    0.6   268      2.9   816.2    0.00       0    45.7   999.0
 108    0:00   43.3    68    0.4   251      0.4   816.2    0.00       0    45.7   999.0
 108    0:10   42.9    69    0.4   251      0.4   816.1    0.00       0    45.7   999.0
 108    0:20   42.4    70    0.4   210      1.2   816.2    0.00       0    45.7   999.0
 108    0:30   42.0    71    0.4   224      0.4   816.1    0.00       0    45.7   999.0
 108    0:40   41.8    71    0.4   224      0.4   816.2    0.00       0    45.7   999.0
 108    0:50   41.4    72    0.6   254      2.1   816.2    0.00       0    45.7   999.0
 108    1:00   40.8    73    0.6   247      2.1   816.2    0.00       0    45.7   999.0
 108    1:10   40.6    73    0.7   235      2.9   816.1    0.00       0    45.7   999.0
 108    1:20   40.4    74    0.7   247      2.9   816.0    0.00       0    45.7   999.0
 108    1:30   39.6    76    0.7    90      2.1   816.1    0.00       0    45.7   999.0
 108    1:40   39.2    78    0.4    75      0.4   816.1    0.00       0    45.7   999.0
 108    1:50   39.5    77    0.6    80      2.9   816.2    0.00       0    45.7   999.0
 108    2:00   39.6    78    0.4    74      2.1   816.2    0.00       0    45.7   999.0
 108    2:10   39.7    76    0.4    68      0.4   816.2    0.00       0    45.7   999.0
 108    2:20   39.7    76    0.4    68      0.4   816.2    0.00       0    45.7   999.0
 108    2:30   39.5    76    0.4    68      0.4   816.3    0.00       0    45.7   999.0
 108    2:40   39.5    77    0.4    68      0.4   816.3    0.00       0    45.8   999.0
 108    2:50   39.2    77    0.4    68      0.4   816.3    0.00       0    45.8   999.0
 108    3:00   39.2    78    0.4    68      0.4   816.2    0.00       0    45.8   999.0
 108    3:10   38.2    80    0.7    77      2.1   816.2    0.00       0    45.8   999.0
 108    3:20   38.0    81    0.8    85      3.8   816.1    0.00       0    45.7   999.0
 108    3:30   37.6    82    0.7   204      2.1   816.2    0.00       0    45.7   999.0
 108    3:40   37.8    82    0.4   231      0.4   816.3    0.00       0    45.7   999.0
 108    3:50   37.8    82    0.4   231      0.4   816.3    0.00       0    45.7   999.0
 108    4:00   37.8    82    0.4   231      0.4   816.4    0.00       0    45.7   999.0
 108    4:10   37.2    83    0.5   231      2.1   816.4    0.00       0    45.7   999.0
 108    4:20   36.9    83    0.5   231      2.1   816.3    0.00       0    45.7   999.0
 108    4:30   36.7    83    0.5   231      2.1   816.4    0.00       0    45.8   999.0
 108    4:40   35.9    84    0.4   231      0.4   816.5    0.00       0    45.8   999.0
 108    4:50   35.1    87    0.4   231      0.4   816.6    0.00       0    45.8   999.0
 108    5:00   35.9    88    0.8   280      2.9   816.7    0.00       0    45.8   999.0
 108    5:10   35.6    87    0.4   259      0.4   816.8    0.00       0    45.8   999.0
 108    5:20   35.3    88    0.4   259      0.4   816.9    0.00       0    45.8   999.0
 108    5:30   34.9    88    0.6   277      2.1   817.0    0.00       0    45.8   999.0
 108    5:40   34.5    88    0.4   287      0.4   817.1    0.00       0    45.8   999.0
 108    5:50   34.0    89    0.4   287      1.2   817.3    0.00       0    45.8   999.0
 108    6:00   34.2    90    0.4   287      0.4   817.4    0.00      11    45.8   999.0
 108    6:10   35.0    90    0.4   287      0.4   817.5    0.00      96    45.8   999.0
 108    6:20   37.0    87    0.4   287      0.4   817.6    0.00     129    45.8   999.0
 108    6:30   38.4    82    0.4   287      0.4   817.6    0.00     147    45.8   999.0
 108    6:40   39.0    80    0.5   288      2.1   817.7    0.00     193    45.8   999.0
 108    6:50   39.1    80    1.2    67      2.9   817.8    0.00     196    45.8   999.0
 108    7:00   40.5    78    0.7    67      2.1   817.8    0.00     252    45.8   999.0
 108    7:10   41.3    77    1.7    59      3.8   817.9    0.00     261    45.8   999.0
 108    7:20   43.0    74    1.5   102      2.9   817.9    0.00     316    45.8   999.0
 108    7:30   44.2    71    2.0   218      4.6   818.0    0.00     324    45.8   999.0
 108    7:40   45.8    67    1.4   228      5.4   818.0    0.00     380    45.9   999.0
 108    7:50   46.0    67    1.6   149      4.6   818.1    0.00     386    45.8   999.0
 108    8:00   45.3    69    2.0    74      4.6   818.0    0.00     439    45.9   999.0
 108    8:10   46.6    67    1.7   136      5.4   818.0    0.00     451    45.9   999.0
 108    8:20   47.2    65    2.4   225      5.4   818.1    0.00     488    45.8   999.0
 108    8:30   48.1    63    1.9   209      6.3   818.0    0.00     515    45.9   999.0
 108    8:40   48.6    62    2.3   217      5.4   818.0    0.00     533    45.9   999.0

Return to Glenshire Elementary graphs page.


Western Regional Climate Center,wrcc@dri.edu